Time;durP1;ratioP1;P1;durP2;ratioP2;P2;SDS_P1;SDS_P2;PMS_P1;PMS_P2;Temp;Humidity;BMP_temperature;BMP_pressure;BME280_temperature;BME280_humidity;BME280_pressure;Samples;Min_cycle;Max_cycle;Signal;HPM_P1;HPM_P2
2021/08/10 00:02:17;;;;;;;2.77;1.93;;;;;;;14.34;91.62;96167.22;5029401;28;20646;-76
2021/08/10 00:04:44;;;;;;;3.43;1.97;;;;;;;14.33;91.80;96170.75;5030111;28;20414;-76
2021/08/10 00:07:10;;;;;;;5.00;1.70;;;;;;;14.19;92.19;96169.13;5029859;28;20418;-76
2021/08/10 00:09:35;;;;;;;2.72;1.70;;;;;;;14.07;93.88;96172.59;5030270;28;20417;-76
2021/08/10 00:12:01;;;;;;;2.90;1.70;;;;;;;14.28;91.37;96163.28;5030199;28;20418;-76
2021/08/10 00:14:26;;;;;;;8.90;1.67;;;;;;;14.36;90.07;96160.97;5030090;28;20476;-76
2021/08/10 00:16:52;;;;;;;2.53;1.65;;;;;;;14.36;90.35;96166.16;5032756;28;20414;-76
2021/08/10 00:19:17;;;;;;;3.70;2.23;;;;;;;14.40;89.87;96158.97;5033905;28;20414;-76
2021/08/10 00:21:44;;;;;;;3.13;1.83;;;;;;;14.28;91.24;96160.69;5033590;28;20490;-76
2021/08/10 00:24:09;;;;;;;3.23;1.87;;;;;;;14.29;90.52;96157.94;5033625;28;20961;-76
2021/08/10 00:26:35;;;;;;;2.70;1.80;;;;;;;14.37;88.85;96167.00;5033484;28;20481;-76
2021/08/10 00:29:01;;;;;;;3.00;1.33;;;;;;;14.25;87.40;96164.31;5033666;28;20415;-76
2021/08/10 00:31:27;;;;;;;2.88;1.75;;;;;;;13.88;93.75;96160.03;5033580;28;20435;-76
2021/08/10 00:33:52;;;;;;;2.77;1.60;;;;;;;13.96;91.63;96168.16;5033339;28;20421;-76
2021/08/10 00:36:17;;;;;;;2.73;1.93;;;;;;;14.07;89.95;96164.78;5031994;28;20465;-76
2021/08/10 00:38:44;;;;;;;5.33;2.00;;;;;;;14.01;89.81;96163.44;5032233;28;20426;-76
2021/08/10 00:41:10;;;;;;;7.90;2.30;;;;;;;13.96;91.01;96166.38;5033686;28;20421;-76
2021/08/10 00:43:37;;;;;;;3.28;1.92;;;;;;;14.03;90.13;96159.78;5032165;28;20509;-76
2021/08/10 00:46:05;;;;;;;2.83;1.50;;;;;;;14.03;90.41;96153.75;5031549;28;20425;-76
2021/08/10 00:48:31;;;;;;;3.00;1.70;;;;;;;13.99;91.67;96155.75;5033507;28;20789;-76
2021/08/10 00:50:56;;;;;;;4.00;2.10;;;;;;;14.01;91.80;96156.47;5033109;28;20422;-76
2021/08/10 00:53:22;;;;;;;3.55;2.10;;;;;;;14.04;92.17;96158.03;5031880;28;20426;-76
2021/08/10 00:55:49;;;;;;;4.10;1.90;;;;;;;14.04;92.64;96158.03;5033147;28;20884;-77
2021/08/10 00:58:15;;;;;;;2.97;1.83;;;;;;;14.04;92.65;96165.84;5033167;28;20423;-77
2021/08/10 01:00:41;;;;;;;2.47;1.73;;;;;;;14.08;92.70;96158.63;5033081;28;20921;-76
2021/08/10 01:03:06;;;;;;;2.38;1.58;;;;;;;14.14;92.36;96158.22;5031785;28;20498;-76
2021/08/10 01:05:32;;;;;;;3.37;2.20;;;;;;;14.10;92.57;96155.00;5032589;28;20905;-76
2021/08/10 01:08:07;;;;;;;3.58;1.75;;;;;;;14.04;93.04;96147.59;5033173;28;20858;-76
2021/08/10 01:10:39;;;;;;;3.20;1.67;;;;;;;14.02;92.80;96149.50;5033098;28;20419;-76
2021/08/10 01:13:16;;;;;;;5.75;1.95;;;;;;;13.91;93.68;96155.47;5032840;28;20471;-76
2021/08/10 01:15:46;;;;;;;2.70;1.90;;;;;;;13.91;93.72;96154.63;5031112;28;20541;-76
2021/08/10 01:18:15;;;;;;;4.20;2.17;;;;;;;13.98;90.55;96150.66;5031465;28;20493;-76
2021/08/10 01:21:14;;;;;;;4.50;2.10;;;;;;;13.93;88.16;96143.16;5032630;28;20418;-76
2021/08/10 01:23:40;;;;;;;3.95;2.08;;;;;;;13.73;89.43;96143.72;5027245;28;20434;-76
2021/08/10 01:26:17;;;;;;;3.58;2.00;;;;;;;13.61;91.86;96145.41;5032265;28;20446;-76
2021/08/10 01:28:52;;;;;;;5.10;2.40;;;;;;;13.49;93.32;96144.44;5032112;28;20426;-76
2021/08/10 01:31:28;;;;;;;4.95;2.20;;;;;;;13.54;93.47;96144.16;5031214;28;20426;-75
2021/08/10 01:34:04;;;;;;;3.95;1.98;;;;;;;13.46;95.40;96142.09;5032294;28;21006;-76
2021/08/10 01:36:32;;;;;;;6.97;1.80;;;;;;;13.49;95.65;96144.44;5030895;28;20505;-75
2021/08/10 01:39:00;;;;;;;4.95;1.58;;;;;;;13.56;95.68;96134.47;5032615;28;20411;-76
2021/08/10 01:41:28;;;;;;;5.30;2.17;;;;;;;13.67;95.16;96139.75;5032497;28;20465;-76
2021/08/10 01:43:58;;;;;;;3.80;2.07;;;;;;;13.68;94.68;96141.44;5030828;28;20423;-76
2021/08/10 01:46:26;;;;;;;3.15;2.10;;;;;;;13.71;94.10;96140.38;5031813;28;20431;-76
2021/08/10 01:48:54;;;;;;;2.03;1.50;;;;;;;13.64;94.40;96139.13;5032443;28;20440;-76
2021/08/10 01:51:21;;;;;;;2.38;1.67;;;;;;;13.62;94.56;96135.81;5030805;28;20784;-76
2021/08/10 01:53:47;;;;;;;3.35;1.90;;;;;;;13.56;94.81;96137.06;5030621;28;20843;-76
2021/08/10 01:56:12;;;;;;;2.25;1.70;;;;;;;13.53;95.03;96125.13;5031910;28;20502;-76
2021/08/10 01:58:39;;;;;;;5.03;1.65;;;;;;;13.51;94.79;96121.78;5031944;28;20418;-76
2021/08/10 02:01:04;;;;;;;7.10;2.15;;;;;;;13.43;94.16;96118.03;5032050;28;20785;-76
2021/08/10 02:03:32;;;;;;;3.30;1.95;;;;;;;13.41;92.28;96123.34;5030657;28;20426;-76
2021/08/10 02:05:58;;;;;;;5.22;2.45;;;;;;;13.33;91.64;96117.81;5030105;28;20987;-76
2021/08/10 02:08:24;;;;;;;5.83;2.20;;;;;;;13.21;91.64;96119.47;5032008;28;20414;-76
2021/08/10 02:10:51;;;;;;;4.35;1.90;;;;;;;13.25;90.59;96117.53;5030385;28;20415;-76
2021/08/10 02:13:16;;;;;;;2.77;2.07;;;;;;;13.30;90.44;96107.63;5031769;28;20471;-76
2021/08/10 02:15:46;;;;;;;3.17;2.00;;;;;;;13.10;92.75;96113.34;5031290;28;20461;-76
2021/08/10 02:18:12;;;;;;;3.17;2.08;;;;;;;13.06;92.35;96116.13;5031560;28;20790;-76
2021/08/10 02:20:41;;;;;;;4.07;2.20;;;;;;;13.02;92.19;96112.06;5031616;28;20877;-76
2021/08/10 02:23:11;;;;;;;4.47;2.67;;;;;;;12.95;93.53;96115.19;5031415;28;20920;-76
2021/08/10 02:25:40;;;;;;;2.53;1.92;;;;;;;12.93;93.87;96117.03;5031482;28;20772;-76
2021/08/10 02:28:06;;;;;;;3.15;2.15;;;;;;;12.88;94.99;96122.56;5030171;28;20484;-76
2021/08/10 02:30:36;;;;;;;4.75;2.20;;;;;;;12.84;95.98;96119.31;5031415;28;20414;-76
2021/08/10 02:33:05;;;;;;;1.95;1.75;;;;;;;12.86;96.35;96120.97;5031241;28;20411;-76
2021/08/10 02:35:32;;;;;;;2.30;2.00;;;;;;;12.89;97.51;96118.19;5057212;22;20441;-80
2021/08/10 02:38:04;;;;;;;2.92;1.60;;;;;;;12.93;97.95;96117.03;5052767;28;20421;-80
2021/08/10 02:40:31;;;;;;;1.83;1.60;;;;;;;13.04;96.69;96124.97;5051644;28;20471;-80
2021/08/10 02:42:59;;;;;;;2.83;1.60;;;;;;;13.11;96.17;96117.59;5053932;28;20462;-79
2021/08/10 02:45:25;;;;;;;3.47;1.92;;;;;;;13.04;96.64;96105.00;5052352;28;20782;-79
2021/08/10 02:47:51;;;;;;;3.08;1.60;;;;;;;13.07;96.22;96109.16;5054439;28;20504;-80
2021/08/10 02:50:18;;;;;;;2.55;1.40;;;;;;;13.06;96.22;96110.09;5053360;28;20425;-79
2021/08/10 02:52:43;;;;;;;5.82;1.45;;;;;;;13.05;96.36;96114.47;5054925;28;20409;-80
2021/08/10 02:55:11;;;;;;;3.27;2.00;;;;;;;13.14;96.22;96117.38;5054421;28;20478;-80
2021/08/10 02:57:47;;;;;;;4.80;1.88;;;;;;;13.14;96.07;96113.00;5054141;28;20556;-81
2021/08/10 03:00:14;;;;;;;2.00;1.40;;;;;;;13.13;95.84;96113.97;5053915;28;21007;-80
2021/08/10 03:02:43;;;;;;;3.80;1.90;;;;;;;12.74;98.54;96113.06;5053323;28;20421;-80
2021/08/10 03:05:12;;;;;;;3.67;1.77;;;;;;;12.52;100.00;96118.81;5054619;28;20440;-79
2021/08/10 03:07:40;;;;;;;3.92;1.73;;;;;;;12.40;100.00;96118.81;5052618;28;20521;-80
2021/08/10 03:10:08;;;;;;;3.03;1.90;;;;;;;12.54;100.00;96111.78;5053553;28;20927;-80
2021/08/10 03:12:38;;;;;;;3.05;1.88;;;;;;;12.63;99.35;96115.53;5053455;28;20417;-79
2021/08/10 03:15:04;;;;;;;2.77;1.77;;;;;;;12.59;98.28;96122.69;5053269;28;20425;-79
2021/08/10 03:17:34;;;;;;;7.60;1.95;;;;;;;12.65;94.68;96121.47;5052331;28;20418;-80
2021/08/10 03:20:02;;;;;;;2.67;1.67;;;;;;;12.64;91.79;96119.78;5052433;28;20907;-79
2021/08/10 03:22:29;;;;;;;3.70;1.90;;;;;;;12.69;91.28;96115.16;5053157;28;20413;-80
2021/08/10 03:24:56;;;;;;;4.25;1.90;;;;;;;12.65;91.38;96112.84;5052036;28;20417;-80
2021/08/10 03:27:23;;;;;;;2.63;1.65;;;;;;;12.58;91.85;96115.00;5053265;28;20422;-80
2021/08/10 03:29:51;;;;;;;5.10;1.92;;;;;;;12.37;93.82;96119.00;5052287;28;20471;-80
2021/08/10 03:32:16;;;;;;;3.90;2.10;;;;;;;12.17;94.66;96112.50;5051997;28;20424;-79
2021/08/10 03:34:44;;;;;;;8.37;2.10;;;;;;;12.05;96.08;96114.94;5052183;28;20421;-80
2021/08/10 03:37:10;;;;;;;4.35;2.00;;;;;;;11.93;97.59;96117.44;5052010;28;20775;-80
2021/08/10 03:39:37;;;;;;;2.90;2.10;;;;;;;11.89;99.83;96115.97;5051860;28;20927;-80
2021/08/10 03:42:05;;;;;;;2.63;1.93;;;;;;;11.93;99.12;96112.25;5051726;28;20500;-80
2021/08/10 03:44:30;;;;;;;2.70;2.08;;;;;;;11.98;99.29;96115.41;5051500;28;20478;-80
2021/08/10 03:46:58;;;;;;;2.00;1.70;;;;;;;12.02;100.00;96109.09;5053063;28;20429;-79
2021/08/10 03:49:24;;;;;;;3.85;2.05;;;;;;;12.02;100.00;96109.94;5051821;28;20440;-80
2021/08/10 03:51:51;;;;;;;7.38;2.38;;;;;;;12.17;100.00;96115.09;5057832;28;20421;-81
2021/08/10 03:54:16;;;;;;;2.58;1.83;;;;;;;12.23;100.00;96114.69;5058610;28;20413;-79
2021/08/10 03:56:46;;;;;;;5.53;2.10;;;;;;;12.38;100.00;96112.84;5056696;28;20416;-80
2021/08/10 03:59:15;;;;;;;3.03;1.83;;;;;;;12.53;100.00;96123.13;5057634;28;20921;-80
2021/08/10 04:01:41;;;;;;;3.33;2.10;;;;;;;12.50;100.00;96122.47;5056025;28;20428;-79
2021/08/10 04:04:09;;;;;;;3.17;1.90;;;;;;;12.55;100.00;96112.59;5055911;28;20421;-79
2021/08/10 04:06:37;;;;;;;3.40;1.98;;;;;;;12.67;100.00;96119.59;5055492;28;20417;-80
2021/08/10 04:09:04;;;;;;;2.15;1.83;;;;;;;12.75;100.00;96121.69;5055725;28;20439;-79
2021/08/10 04:11:30;;;;;;;3.83;1.92;;;;;;;12.78;99.98;96121.50;5057267;28;20479;-79
2021/08/10 04:13:56;;;;;;;3.53;2.00;;;;;;;12.66;100.00;96120.53;5057149;28;20412;-77
2021/08/10 04:16:23;;;;;;;5.47;1.92;;;;;;;12.46;100.00;96123.59;5055552;28;20752;-78
2021/08/10 04:18:49;;;;;;;2.97;2.05;;;;;;;12.33;100.00;96126.97;5056729;28;20848;-78
2021/08/10 04:21:19;;;;;;;2.30;1.70;;;;;;;12.37;100.00;96119.81;5057454;28;20507;-77
2021/08/10 04:23:45;;;;;;;2.30;1.60;;;;;;;12.56;100.00;96125.50;5057393;28;20477;-78
2021/08/10 04:26:10;;;;;;;4.05;2.00;;;;;;;12.79;100.00;96129.22;5046440;28;20861;-79
2021/08/10 04:28:35;;;;;;;5.77;2.20;;;;;;;12.87;100.00;96127.84;5038511;28;20815;-77
2021/08/10 04:31:01;;;;;;;5.10;2.30;;;;;;;12.72;100.00;96132.28;5033606;28;20513;-76
2021/08/10 04:33:26;;;;;;;6.63;2.07;;;;;;;12.72;100.00;96140.06;5034889;28;20509;-77
2021/08/10 04:35:52;;;;;;;4.65;2.13;;;;;;;12.72;100.00;96137.47;5032712;28;20422;-77
2021/08/10 04:38:19;;;;;;;3.47;1.93;;;;;;;12.80;100.00;96138.66;5034694;28;20594;-76
2021/08/10 04:40:44;;;;;;;2.90;2.28;;;;;;;13.02;100.00;96137.25;5034779;28;20497;-77
2021/08/10 04:43:09;;;;;;;3.10;2.20;;;;;;;13.14;100.00;96136.41;5034436;28;20494;-77
2021/08/10 04:45:35;;;;;;;2.33;1.93;;;;;;;13.00;100.00;96139.09;5034247;28;20414;-77
2021/08/10 04:48:00;;;;;;;3.53;2.30;;;;;;;12.93;100.00;96138.66;5035669;28;20414;-77
2021/08/10 04:50:26;;;;;;;7.87;2.07;;;;;;;12.71;100.00;96139.25;5036488;28;20836;-77
2021/08/10 04:52:51;;;;;;;4.95;2.17;;;;;;;12.65;100.00;96142.25;5034678;28;20498;-77
2021/08/10 04:55:18;;;;;;;5.25;2.38;;;;;;;12.73;100.00;96142.59;5034247;28;20788;-77
2021/08/10 04:57:44;;;;;;;6.20;1.92;;;;;;;12.79;100.00;96138.75;5034628;28;20418;-77
2021/08/10 05:00:10;;;;;;;2.72;1.92;;;;;;;12.89;100.00;96141.59;5032738;28;20438;-77
2021/08/10 05:02:36;;;;;;;5.22;2.05;;;;;;;12.90;100.00;96141.47;5033560;28;20416;-77
2021/08/10 05:05:02;;;;;;;4.22;2.08;;;;;;;12.97;100.00;96147.09;5032817;28;20464;-77
2021/08/10 05:07:27;;;;;;;4.32;1.80;;;;;;;12.91;100.00;96152.72;5033990;28;20443;-77
2021/08/10 05:09:53;;;;;;;4.43;1.92;;;;;;;12.89;100.00;96147.59;5032640;28;20427;-77
2021/08/10 05:12:19;;;;;;;3.63;2.27;;;;;;;12.80;100.00;96150.81;5049212;28;20488;-76
2021/08/10 05:14:45;;;;;;;3.47;2.22;;;;;;;12.64;100.00;96158.75;5052220;28;20409;-77
2021/08/10 05:17:13;;;;;;;4.80;2.50;;;;;;;12.64;100.00;96158.75;5053392;28;20930;-77
2021/08/10 05:19:38;;;;;;;3.20;2.30;;;;;;;12.57;100.00;96163.56;5053892;28;20432;-77
2021/08/10 05:22:04;;;;;;;4.47;2.13;;;;;;;12.67;100.00;96165.53;5052969;28;20508;-77
2021/08/10 05:24:29;;;;;;;4.17;2.10;;;;;;;12.62;100.00;96159.81;5052026;28;20425;-77
2021/08/10 05:26:54;;;;;;;2.67;1.97;;;;;;;12.89;100.00;96170.19;5052508;28;20431;-74
2021/08/10 05:29:21;;;;;;;3.67;1.80;;;;;;;13.08;100.00;96165.41;5037407;28;20419;-77
2021/08/10 05:31:46;;;;;;;6.03;2.30;;;;;;;13.19;100.00;96162.94;5033901;28;20430;-76
2021/08/10 05:34:12;;;;;;;3.17;1.70;;;;;;;13.27;100.00;96163.31;5033448;28;20465;-77
2021/08/10 05:36:37;;;;;;;3.80;2.03;;;;;;;13.32;100.00;96161.22;5033710;28;20768;-76
2021/08/10 05:39:03;;;;;;;8.37;2.07;;;;;;;13.44;100.00;96161.34;5034133;28;20832;-72
2021/08/10 05:41:29;;;;;;;4.70;1.90;;;;;;;13.50;100.00;96164.34;5036050;28;20414;-77
2021/08/10 05:43:54;;;;;;;3.77;2.00;;;;;;;13.62;100.00;96164.44;5052305;28;20427;-76
2021/08/10 05:46:21;;;;;;;4.07;2.30;;;;;;;13.71;98.85;96166.41;5052826;28;20429;-76
2021/08/10 05:48:46;;;;;;;3.33;2.13;;;;;;;13.57;98.88;96159.53;5053464;28;20459;-77
2021/08/10 05:51:12;;;;;;;2.90;1.67;;;;;;;13.53;98.95;96161.53;5052158;28;20752;-77
2021/08/10 05:53:37;;;;;;;4.68;1.60;;;;;;;13.55;99.72;96167.47;5051076;28;20776;-75
2021/08/10 05:56:03;;;;;;;4.17;1.90;;;;;;;13.62;99.52;96161.84;5049221;28;20425;-76
2021/08/10 05:58:29;;;;;;;3.30;2.00;;;;;;;13.74;99.02;96161.81;5050734;28;20420;-75
2021/08/10 06:00:54;;;;;;;2.95;2.05;;;;;;;13.80;98.13;96166.63;5050560;28;20489;-75
2021/08/10 06:03:21;;;;;;;3.13;1.80;;;;;;;13.76;99.27;96169.53;5051722;28;20417;-75
2021/08/10 06:05:46;;;;;;;2.80;1.70;;;;;;;13.90;98.39;96172.00;5052627;28;20477;-73
2021/08/10 06:08:12;;;;;;;4.40;2.07;;;;;;;13.90;98.01;96171.16;5052663;28;20443;-76
2021/08/10 06:10:38;;;;;;;2.13;1.90;;;;;;;13.78;99.02;96171.09;5052842;28;20411;-76
2021/08/10 06:13:03;;;;;;;4.50;1.67;;;;;;;13.74;99.09;96167.03;5052742;28;20414;-76
2021/08/10 06:15:30;;;;;;;5.10;2.07;;;;;;;13.80;99.80;96158.81;5051193;28;20472;-76
2021/08/10 06:17:55;;;;;;;4.18;2.30;;;;;;;13.94;98.82;96170.88;5053317;28;20500;-76
2021/08/10 06:20:22;;;;;;;2.05;1.75;;;;;;;13.94;98.62;96168.28;5051935;28;20854;-76
2021/08/10 06:22:50;;;;;;;3.55;1.90;;;;;;;13.97;99.35;96173.25;5051377;28;21507;-76
2021/08/10 06:25:15;;;;;;;6.63;2.15;;;;;;;14.05;99.00;96170.09;5041871;28;20511;-76
2021/08/10 06:27:41;;;;;;;3.63;2.20;;;;;;;14.08;98.88;96167.28;5051050;28;20783;-76
2021/08/10 06:30:09;;;;;;;5.07;2.08;;;;;;;14.16;98.25;96157.16;5052984;28;20736;-74
2021/08/10 06:32:34;;;;;;;3.40;2.10;;;;;;;14.42;98.15;96168.31;5052722;28;20425;-76
2021/08/10 06:35:00;;;;;;;4.15;2.10;;;;;;;14.56;95.69;96159.53;5052766;28;20524;-77
2021/08/10 06:37:26;;;;;;;3.37;1.97;;;;;;;14.63;95.72;96157.31;5053823;28;20401;-76
2021/08/10 06:39:52;;;;;;;2.10;1.63;;;;;;;14.82;95.99;96159.41;5054111;28;20493;-77
2021/08/10 06:42:18;;;;;;;4.30;2.13;;;;;;;14.76;94.54;96163.31;5053501;28;20508;-77
2021/08/10 06:44:43;;;;;;;3.97;2.10;;;;;;;14.75;95.84;96161.63;5052755;28;20835;-77
2021/08/10 06:47:09;;;;;;;4.37;2.00;;;;;;;14.67;93.55;96156.16;5052880;28;20424;-76
2021/08/10 06:49:34;;;;;;;5.03;2.00;;;;;;;14.54;94.18;96160.63;5052551;28;20496;-75
2021/08/10 06:51:59;;;;;;;5.30;1.90;;;;;;;14.69;94.99;96151.69;5052137;28;20427;-76
2021/08/10 06:54:26;;;;;;;3.90;2.13;;;;;;;14.63;93.68;96154.72;5050742;28;20420;-72
2021/08/10 06:56:52;;;;;;;2.60;1.85;;;;;;;14.71;94.31;96157.59;5050926;28;20921;-73
2021/08/10 06:59:17;;;;;;;2.97;1.95;;;;;;;14.79;93.30;96157.03;5051216;28;20441;-77
2021/08/10 07:01:43;;;;;;;3.47;2.00;;;;;;;14.80;93.28;96156.94;5051514;28;20417;-78
2021/08/10 07:04:08;;;;;;;7.47;2.30;;;;;;;14.87;92.61;96152.06;5053245;28;20752;-77
2021/08/10 07:06:34;;;;;;;2.53;1.80;;;;;;;14.98;92.26;96152.13;5051935;28;20425;-76
2021/08/10 07:09:04;;;;;;;2.85;1.92;;;;;;;14.99;92.97;96148.59;5050518;28;20425;-75
2021/08/10 07:11:31;;;;;;;5.90;2.17;;;;;;;15.19;93.47;96142.69;5051168;28;20409;-76
2021/08/10 07:13:57;;;;;;;3.78;2.00;;;;;;;15.39;92.80;96156.03;5050842;28;20475;-77
2021/08/10 07:16:22;;;;;;;3.28;1.90;;;;;;;15.29;91.85;96135.00;5049566;28;20516;-76
2021/08/10 07:18:48;;;;;;;4.88;2.15;;;;;;;15.18;92.91;96133.22;5050025;28;20455;-77
2021/08/10 07:21:13;;;;;;;2.93;1.90;;;;;;;15.38;92.99;96121.25;5051241;28;20416;-76
2021/08/10 07:23:39;;;;;;;3.40;1.93;;;;;;;15.52;92.65;96114.97;5051785;28;20766;-77
2021/08/10 07:26:04;;;;;;;3.78;2.08;;;;;;;15.65;90.34;96120.09;5049924;28;20417;-77
2021/08/10 07:28:31;;;;;;;4.60;2.00;;;;;;;15.57;89.70;96122.44;5051737;28;20775;-76
2021/08/10 07:30:56;;;;;;;2.33;1.90;;;;;;;15.67;89.61;96124.25;5050772;28;20513;-76
2021/08/10 07:33:22;;;;;;;2.83;1.90;;;;;;;15.87;90.20;96121.88;5049383;28;20421;-75
2021/08/10 07:35:47;;;;;;;6.53;2.43;;;;;;;15.99;90.83;96120.09;5049849;28;20515;-77
2021/08/10 07:38:13;;;;;;;4.38;2.17;;;;;;;16.00;90.70;96111.31;5053926;28;20416;-77
2021/08/10 07:40:38;;;;;;;3.53;2.03;;;;;;;16.18;91.76;96115.91;5052499;28;20448;-77
2021/08/10 07:43:03;;;;;;;4.50;2.00;;;;;;;16.38;92.28;96119.53;5053309;28;20405;-77
2021/08/10 07:45:30;;;;;;;3.90;2.05;;;;;;;16.40;91.02;96109.78;5053278;28;21204;-77
2021/08/10 07:47:56;;;;;;;3.15;2.10;;;;;;;16.51;91.96;96103.69;5053541;28;20425;-78
2021/08/10 07:50:22;;;;;;;6.00;2.33;;;;;;;16.66;91.50;96109.47;5053451;28;20417;-76
2021/08/10 07:52:48;;;;;;;3.88;2.30;;;;;;;16.73;91.04;96109.81;5051861;28;20417;-76
2021/08/10 07:55:13;;;;;;;6.82;2.30;;;;;;;16.60;90.77;96118.63;5050381;28;20422;-77
2021/08/10 07:57:40;;;;;;;6.37;1.90;;;;;;;16.75;89.76;96120.97;5051438;28;20417;-77
2021/08/10 08:00:07;;;;;;;3.73;1.80;;;;;;;16.62;90.77;96111.50;5049434;28;20429;-79
2021/08/10 08:02:33;;;;;;;6.82;1.77;;;;;;;16.66;89.46;96112.91;5050189;28;20425;-77
2021/08/10 08:04:59;;;;;;;3.00;1.80;;;;;;;16.72;89.71;96102.88;5050279;28;20417;-78
2021/08/10 08:07:24;;;;;;;4.70;1.90;;;;;;;16.81;89.90;96108.25;5051049;28;20425;-78
2021/08/10 08:09:50;;;;;;;3.87;1.80;;;;;;;17.04;89.27;96100.25;5051562;28;20440;-78
2021/08/10 08:12:15;;;;;;;5.80;2.40;;;;;;;17.28;88.56;96097.38;5049755;28;20853;-77
2021/08/10 08:14:43;;;;;;;6.60;1.70;;;;;;;17.51;88.90;96101.50;5050561;28;20982;-76
2021/08/10 08:17:09;;;;;;;2.95;1.60;;;;;;;17.69;85.96;96098.25;5052401;28;20420;-79
2021/08/10 08:19:36;;;;;;;2.92;1.95;;;;;;;17.93;86.95;96096.16;5055561;28;20979;-79
2021/08/10 08:22:01;;;;;;;5.75;2.28;;;;;;;17.96;84.89;96098.53;5050277;28;20425;-77
2021/08/10 08:24:27;;;;;;;5.97;2.10;;;;;;;18.00;84.29;96093.84;5048750;28;20425;-77
2021/08/10 08:26:53;;;;;;;5.05;2.15;;;;;;;18.24;84.11;96101.34;5049548;28;20504;-77
2021/08/10 08:29:18;;;;;;;9.83;1.83;;;;;;;18.55;79.95;96104.72;5050814;28;20488;-77
2021/08/10 08:31:44;;;;;;;3.08;1.80;;;;;;;18.74;79.09;96098.66;5048988;28;20767;-79
2021/08/10 08:34:09;;;;;;;2.50;1.60;;;;;;;18.95;78.04;96094.09;5050574;28;20548;-78
2021/08/10 08:36:36;;;;;;;3.60;1.90;;;;;;;19.21;77.14;96099.59;5032268;23;20441;-77
2021/08/10 08:39:02;;;;;;;2.78;1.80;;;;;;;19.44;76.87;96091.38;5013738;28;20615;-74
2021/08/10 08:41:27;;;;;;;5.15;1.95;;;;;;;19.33;74.78;96095.81;5013617;28;20427;-74
2021/08/10 08:43:53;;;;;;;4.07;2.00;;;;;;;19.31;74.93;96096.91;5013954;28;20501;-73
2021/08/10 08:46:20;;;;;;;3.90;1.80;;;;;;;19.48;73.27;96096.19;5013311;28;20467;-73
2021/08/10 08:48:46;;;;;;;2.33;1.70;;;;;;;19.64;71.85;96102.66;5013961;28;20423;-73
2021/08/10 08:51:16;;;;;;;2.90;1.65;;;;;;;19.60;66.61;96104.72;5014004;28;20492;-73
2021/08/10 08:53:50;;;;;;;3.65;1.52;;;;;;;19.68;67.69;96109.28;5013910;28;20834;-72
2021/08/10 08:56:18;;;;;;;2.53;1.65;;;;;;;19.82;67.15;96109.63;5011371;28;20477;-73
2021/08/10 08:58:43;;;;;;;1.83;1.43;;;;;;;19.98;66.48;96111.63;5005283;28;20423;-73
2021/08/10 09:01:11;;;;;;;5.17;1.77;;;;;;;20.13;67.37;96114.59;5013640;28;20417;-72
2021/08/10 09:03:36;;;;;;;2.70;1.60;;;;;;;20.09;68.46;96115.03;5013070;28;20475;-73
2021/08/10 09:06:02;;;;;;;3.30;1.70;;;;;;;20.32;67.29;96116.31;5013009;28;20437;-73
2021/08/10 09:08:30;;;;;;;8.80;1.90;;;;;;;20.27;67.22;96111.47;5013143;28;20907;-73
2021/08/10 09:10:58;;;;;;;3.80;1.80;;;;;;;20.15;68.78;96117.91;5012913;28;20795;-73
2021/08/10 09:13:24;;;;;;;3.58;1.63;;;;;;;20.14;68.86;96124.16;5011783;28;20425;-73
2021/08/10 09:15:49;;;;;;;4.93;2.00;;;;;;;19.96;67.32;96113.59;5011210;28;20516;-72
2021/08/10 09:18:17;;;;;;;3.42;1.80;;;;;;;20.02;69.66;96115.66;5010970;28;20429;-73
2021/08/10 09:21:01;;;;;;;2.60;1.50;;;;;;;20.24;68.51;96116.19;5012869;28;20477;-74
2021/08/10 09:23:41;;;;;;;2.77;1.50;;;;;;;20.36;67.98;96109.78;4993027;28;20796;-74
2021/08/10 09:26:09;;;;;;;2.65;1.75;;;;;;;20.43;68.46;96115.25;5010999;28;20435;-74
2021/08/10 09:28:35;;;;;;;2.83;1.55;;;;;;;20.50;65.99;96116.34;5011467;28;20487;-73
2021/08/10 09:31:36;;;;;;;2.10;1.55;;;;;;;20.62;65.61;96122.25;5012636;28;20980;-73
2021/08/10 09:34:04;;;;;;;3.08;1.40;;;;;;;20.83;65.29;96120.13;5012739;28;20511;-74
2021/08/10 09:36:31;;;;;;;3.53;1.85;;;;;;;20.89;65.01;96116.88;5012225;28;20429;-74
2021/08/10 09:38:57;;;;;;;4.97;1.93;;;;;;;20.96;65.01;96117.13;5012627;28;20499;-74
2021/08/10 09:41:25;;;;;;;2.83;1.67;;;;;;;21.06;65.36;96112.56;5012739;28;20429;-74
2021/08/10 09:44:05;;;;;;;3.35;1.90;;;;;;;20.85;64.33;96123.44;5012478;28;20421;-74
2021/08/10 09:46:30;;;;;;;3.13;1.77;;;;;;;21.01;65.66;96118.28;5012029;28;20790;-74
2021/08/10 09:48:56;;;;;;;2.63;1.60;;;;;;;21.03;65.64;96116.34;5011913;28;20425;-74
2021/08/10 09:51:24;;;;;;;2.97;1.60;;;;;;;21.20;65.08;96121.72;5012423;28;20458;-74
2021/08/10 09:53:55;;;;;;;2.45;1.80;;;;;;;21.18;63.39;96123.72;5012377;28;20479;-74
2021/08/10 09:56:20;;;;;;;4.57;1.70;;;;;;;20.85;62.93;96123.44;4992391;28;20426;-73
2021/08/10 09:58:58;;;;;;;3.37;1.80;;;;;;;21.01;65.41;96123.56;4995163;28;20479;-73
2021/08/10 10:01:34;;;;;;;3.45;1.90;;;;;;;21.40;63.00;96117.16;5010898;28;20420;-73
2021/08/10 10:04:18;;;;;;;4.95;1.80;;;;;;;21.36;62.69;96124.53;5010708;28;20428;-73
2021/08/10 10:06:45;;;;;;;3.10;1.70;;;;;;;21.20;62.31;96122.56;5011708;28;20420;-74
2021/08/10 10:09:11;;;;;;;6.20;1.80;;;;;;;21.15;62.48;96121.38;5011676;28;20428;-75
2021/08/10 10:11:38;;;;;;;4.25;1.95;;;;;;;21.40;62.58;96125.06;5011877;28;20417;-73
2021/08/10 10:14:06;;;;;;;2.90;1.67;;;;;;;21.46;61.88;96117.34;5011930;28;20412;-72
2021/08/10 10:16:32;;;;;;;3.70;1.80;;;;;;;21.65;61.93;96110.19;5010397;28;20499;-72
2021/08/10 10:19:05;;;;;;;3.20;1.65;;;;;;;21.72;60.55;96119.13;5011962;28;20421;-72
2021/08/10 10:21:31;;;;;;;5.55;1.83;;;;;;;21.58;59.24;96112.66;5010355;28;20436;-72
2021/08/10 10:24:02;;;;;;;3.22;1.58;;;;;;;21.40;61.62;96117.16;5011536;28;20459;-72
2021/08/10 10:26:30;;;;;;;5.43;2.00;;;;;;;21.67;61.30;96116.97;5010224;28;20918;-72
2021/08/10 10:28:56;;;;;;;3.75;1.70;;;;;;;21.67;62.10;96116.16;5010403;28;20413;-72
2021/08/10 10:31:23;;;;;;;4.03;2.00;;;;;;;21.76;59.49;96115.19;5010987;28;20818;-71
2021/08/10 10:33:49;;;;;;;4.82;1.98;;;;;;;21.59;59.67;96113.47;5010547;28;20424;-72
2021/08/10 10:36:15;;;;;;;3.20;1.70;;;;;;;21.59;61.56;96113.47;5010371;28;20416;-72
2021/08/10 10:38:43;;;;;;;3.23;1.70;;;;;;;21.66;63.31;96115.31;5011999;28;20507;-72
2021/08/10 10:41:09;;;;;;;2.45;1.73;;;;;;;21.51;63.49;96108.97;5011495;28;20778;-72
2021/08/10 10:43:36;;;;;;;4.43;1.88;;;;;;;21.58;61.48;96109.16;5010257;28;20423;-72
2021/08/10 10:46:23;;;;;;;3.88;2.00;;;;;;;21.23;61.22;96114.34;5010984;28;20427;-73
2021/08/10 10:48:49;;;;;;;2.80;1.90;;;;;;;21.18;61.71;96118.44;5011206;28;20487;-73
2021/08/10 10:51:22;;;;;;;4.90;1.70;;;;;;;21.61;63.92;96119.41;5011312;28;20425;-73
2021/08/10 10:53:47;;;;;;;3.77;1.70;;;;;;;21.53;61.15;96114.91;5011227;28;20413;-72
2021/08/10 10:56:33;;;;;;;4.47;1.90;;;;;;;21.71;63.62;96109.56;5010558;28;20828;-72
2021/08/10 10:59:24;;;;;;;3.30;1.90;;;;;;;21.73;61.10;96116.34;5009847;28;20432;-73
2021/08/10 11:01:51;;;;;;;4.25;2.05;;;;;;;21.75;61.73;96119.66;5010339;28;20440;-73
2021/08/10 11:04:17;;;;;;;2.47;1.80;;;;;;;21.82;64.15;96111.94;5009958;28;20421;-75
2021/08/10 11:06:46;;;;;;;4.70;1.97;;;;;;;21.56;63.39;96111.97;5010638;28;20439;-75
2021/08/10 11:09:48;;;;;;;6.05;2.00;;;;;;;21.67;63.11;96114.34;5011061;28;20471;-75
2021/08/10 11:12:32;;;;;;;3.03;1.90;;;;;;;21.58;64.21;96115.28;5000455;28;20579;-74
2021/08/10 11:14:57;;;;;;;3.83;1.88;;;;;;;21.54;64.44;96119.19;5010939;28;20420;-74
2021/08/10 11:17:24;;;;;;;3.80;2.10;;;;;;;21.43;65.42;96122.94;5010834;28;20428;-74
2021/08/10 11:19:51;;;;;;;2.65;1.70;;;;;;;21.65;64.45;96115.47;5009585;28;20420;-74
2021/08/10 11:22:24;;;;;;;5.05;1.90;;;;;;;21.57;65.18;96118.88;5009402;28;20421;-75
2021/08/10 11:24:51;;;;;;;2.65;1.80;;;;;;;21.93;64.22;96113.47;5010579;28;20409;-74
2021/08/10 11:27:31;;;;;;;5.95;1.80;;;;;;;22.08;70.31;96111.06;5009344;28;20460;-74
2021/08/10 11:29:56;;;;;;;3.13;2.08;;;;;;;22.54;63.36;96106.28;5011264;28;20412;-75
2021/08/10 11:32:46;;;;;;;2.20;1.45;;;;;;;22.76;65.88;96110.91;5010543;28;20422;-73
2021/08/10 11:35:34;;;;;;;4.88;1.98;;;;;;;22.80;65.74;96106.97;5006095;28;20432;-74